sensor_id;sensor_type;location;lat;lon;timestamp;pressure;altitude;pressure_sealevel;temperature;humidity
7297;BME280;40758;54.038;11.684;2022-12-04T00:00:17;102100.09;;;-1.42;100.00
7297;BME280;40758;54.038;11.684;2022-12-04T00:02:47;102102.75;;;-1.44;100.00
7297;BME280;40758;54.038;11.684;2022-12-04T00:05:20;102105.38;;;-1.44;100.00
7297;BME280;40758;54.038;11.684;2022-12-04T00:07:53;102098.44;;;-1.51;100.00
7297;BME280;40758;54.038;11.684;2022-12-04T00:10:25;102105.53;;;-1.56;100.00
7297;BME280;40758;54.038;11.684;2022-12-04T00:12:56;102101.16;;;-1.58;100.00
7297;BME280;40758;54.038;11.684;2022-12-04T00:15:26;102111.56;;;-1.48;100.00
7297;BME280;40758;54.038;11.684;2022-12-04T00:17:57;102107.97;;;-1.41;100.00
7297;BME280;40758;54.038;11.684;2022-12-04T00:20:29;102110.63;;;-1.42;100.00
7297;BME280;40758;54.038;11.684;2022-12-04T00:22:58;102114.19;;;-1.48;100.00
7297;BME280;40758;54.038;11.684;2022-12-04T00:25:30;102105.41;;;-1.47;100.00
7297;BME280;40758;54.038;11.684;2022-12-04T00:28:07;102107.06;;;-1.40;100.00
7297;BME280;40758;54.038;11.684;2022-12-04T00:30:40;102113.28;;;-1.44;100.00
7297;BME280;40758;54.038;11.684;2022-12-04T00:33:15;102104.50;;;-1.43;100.00
7297;BME280;40758;54.038;11.684;2022-12-04T00:35:44;102115.06;;;-1.46;100.00
7297;BME280;40758;54.038;11.684;2022-12-04T00:38:13;102110.72;;;-1.50;100.00
7297;BME280;40758;54.038;11.684;2022-12-04T00:40:49;102104.50;;;-1.46;100.00
7297;BME280;40758;54.038;11.684;2022-12-04T00:43:22;102100.19;;;-1.51;100.00
7297;BME280;40758;54.038;11.684;2022-12-04T00:45:54;102094.03;;;-1.49;100.00
7297;BME280;40758;54.038;11.684;2022-12-04T00:48:25;102096.53;;;-1.41;100.00
7297;BME280;40758;54.038;11.684;2022-12-04T00:51:00;102102.84;;;-1.53;100.00
7297;BME280;40758;54.038;11.684;2022-12-04T00:53:30;102097.50;;;-1.47;100.00
7297;BME280;40758;54.038;11.684;2022-12-04T00:56:03;102100.13;;;-1.45;100.00
7297;BME280;40758;54.038;11.684;2022-12-04T00:58:35;102093.09;;;-1.48;100.00
7297;BME280;40758;54.038;11.684;2022-12-04T01:01:08;102087.88;;;-1.51;100.00
7297;BME280;40758;54.038;11.684;2022-12-04T01:03:39;102086.94;;;-1.47;100.00
7297;BME280;40758;54.038;11.684;2022-12-04T01:06:19;102082.50;;;-1.42;100.00
7297;BME280;40758;54.038;11.684;2022-12-04T01:08:49;102083.50;;;-1.52;100.00
7297;BME280;40758;54.038;11.684;2022-12-04T01:11:20;102079.09;;;-1.48;100.00
7297;BME280;40758;54.038;11.684;2022-12-04T01:13:57;102079.97;;;-1.51;100.00
7297;BME280;40758;54.038;11.684;2022-12-04T01:16:30;102087.88;;;-1.49;100.00
7297;BME280;40758;54.038;11.684;2022-12-04T01:19:06;102085.28;;;-1.54;100.00
7297;BME280;40758;54.038;11.684;2022-12-04T01:21:41;102081.75;;;-1.53;100.00
7297;BME280;40758;54.038;11.684;2022-12-04T01:24:10;102081.72;;;-1.50;100.00
7297;BME280;40758;54.038;11.684;2022-12-04T01:26:39;102084.31;;;-1.45;100.00
7297;BME280;40758;54.038;11.684;2022-12-04T01:29:08;102086.94;;;-1.44;100.00
7297;BME280;40758;54.038;11.684;2022-12-04T01:31:37;102085.09;;;-1.39;100.00
7297;BME280;40758;54.038;11.684;2022-12-04T01:34:08;102083.28;;;-1.34;100.00
7297;BME280;40758;54.038;11.684;2022-12-04T01:36:37;102084.25;;;-1.41;100.00
7297;BME280;40758;54.038;11.684;2022-12-04T01:39:06;102083.41;;;-1.43;100.00
7297;BME280;40758;54.038;11.684;2022-12-04T01:41:36;102077.91;;;-1.28;100.00
7297;BME280;40758;54.038;11.684;2022-12-04T01:44:10;102087.69;;;-1.36;100.00
7297;BME280;40758;54.038;11.684;2022-12-04T01:46:43;102078.06;;;-1.37;100.00
7297;BME280;40758;54.038;11.684;2022-12-04T01:49:17;102083.38;;;-1.41;100.00
7297;BME280;40758;54.038;11.684;2022-12-04T01:51:51;102092.00;;;-1.29;100.00
7297;BME280;40758;54.038;11.684;2022-12-04T01:54:26;102089.25;;;-1.21;100.00
7297;BME280;40758;54.038;11.684;2022-12-04T01:57:02;102084.97;;;-1.28;100.00
7297;BME280;40758;54.038;11.684;2022-12-04T01:59:39;102081.41;;;-1.26;100.00
7297;BME280;40758;54.038;11.684;2022-12-04T02:02:14;102077.09;;;-1.31;100.00
7297;BME280;40758;54.038;11.684;2022-12-04T02:04:45;102082.38;;;-1.33;100.00
7297;BME280;40758;54.038;11.684;2022-12-04T02:07:15;102085.03;;;-1.33;100.00
7297;BME280;40758;54.038;11.684;2022-12-04T02:09:44;102079.75;;;-1.33;100.00
7297;BME280;40758;54.038;11.684;2022-12-04T02:12:31;102085.91;;;-1.32;100.00
7297;BME280;40758;54.038;11.684;2022-12-04T02:15:15;102081.50;;;-1.32;100.00
7297;BME280;40758;54.038;11.684;2022-12-04T02:17:54;102081.41;;;-1.26;100.00
7297;BME280;40758;54.038;11.684;2022-12-04T02:20:36;102081.41;;;-1.26;100.00
7297;BME280;40758;54.038;11.684;2022-12-04T02:23:39;102089.41;;;-1.32;100.00
7297;BME280;40758;54.038;11.684;2022-12-04T02:26:36;102081.53;;;-1.35;100.00
7297;BME280;40758;54.038;11.684;2022-12-04T02:29:19;102076.22;;;-1.32;100.00
7297;BME280;40758;54.038;11.684;2022-12-04T02:31:57;102072.66;;;-1.28;100.00
7297;BME280;40758;54.038;11.684;2022-12-04T02:34:30;102070.94;;;-1.30;100.00
7297;BME280;40758;54.038;11.684;2022-12-04T02:37:11;102068.31;;;-1.30;100.00
7297;BME280;40758;54.038;11.684;2022-12-04T02:39:48;102076.13;;;-1.24;100.00
7297;BME280;40758;54.038;11.684;2022-12-04T02:42:32;102069.09;;;-1.24;100.00
7297;BME280;40758;54.038;11.684;2022-12-04T02:45:10;102071.75;;;-1.27;100.00
7297;BME280;40758;54.038;11.684;2022-12-04T02:47:41;102069.94;;;-1.22;100.00
7297;BME280;40758;54.038;11.684;2022-12-04T02:50:15;102071.75;;;-1.25;100.00
7297;BME280;40758;54.038;11.684;2022-12-04T02:52:49;102075.22;;;-1.23;100.00
7297;BME280;40758;54.038;11.684;2022-12-04T02:55:27;102066.41;;;-1.20;100.00
7297;BME280;40758;54.038;11.684;2022-12-04T02:58:03;102068.22;;;-1.24;100.00
7297;BME280;40758;54.038;11.684;2022-12-04T03:00:38;102056.81;;;-1.25;100.00
7297;BME280;40758;54.038;11.684;2022-12-04T03:03:17;102065.50;;;-1.19;100.00
7297;BME280;40758;54.038;11.684;2022-12-04T03:05:55;102061.13;;;-1.20;100.00
7297;BME280;40758;54.038;11.684;2022-12-04T03:08:31;102063.66;;;-1.11;100.00
7297;BME280;40758;54.038;11.684;2022-12-04T03:11:03;102063.75;;;-1.20;100.00
7297;BME280;40758;54.038;11.684;2022-12-04T03:13:38;102076.94;;;-1.17;100.00
7297;BME280;40758;54.038;11.684;2022-12-04T03:16:19;102073.44;;;-1.21;100.00
7297;BME280;40758;54.038;11.684;2022-12-04T03:18:55;102074.31;;;-1.20;100.00
7297;BME280;40758;54.038;11.684;2022-12-04T03:21:30;102069.84;;;-1.15;100.00
7297;BME280;40758;54.038;11.684;2022-12-04T03:24:11;102076.78;;;-1.10;100.00
7297;BME280;40758;54.038;11.684;2022-12-04T03:26:45;102077.75;;;-1.15;100.00
7297;BME280;40758;54.038;11.684;2022-12-04T03:29:21;102070.81;;;-1.21;100.00
7297;BME280;40758;54.038;11.684;2022-12-04T03:32:00;102068.06;;;-1.13;100.00
7297;BME280;40758;54.038;11.684;2022-12-04T03:34:37;102068.94;;;-1.11;100.00
7297;BME280;40758;54.038;11.684;2022-12-04T03:37:13;102065.38;;;-1.10;100.00
7297;BME280;40758;54.038;11.684;2022-12-04T03:39:55;102065.47;;;-1.16;100.00
7297;BME280;40758;54.038;11.684;2022-12-04T03:42:30;102064.56;;;-1.15;100.00
7297;BME280;40758;54.038;11.684;2022-12-04T03:45:10;102069.84;;;-1.14;100.00
7297;BME280;40758;54.038;11.684;2022-12-04T03:47:52;102063.59;;;-1.10;100.00
7297;BME280;40758;54.038;11.684;2022-12-04T03:50:32;102061.91;;;-1.12;100.00
7297;BME280;40758;54.038;11.684;2022-12-04T03:53:11;102054.91;;;-1.16;100.00
7297;BME280;40758;54.038;11.684;2022-12-04T03:55:50;102061.03;;;-1.11;100.00
7297;BME280;40758;54.038;11.684;2022-12-04T03:58:27;102052.25;;;-1.13;100.00
7297;BME280;40758;54.038;11.684;2022-12-04T04:01:00;102053.94;;;-1.09;100.00
7297;BME280;40758;54.038;11.684;2022-12-04T04:03:38;102050.47;;;-1.13;100.00
7297;BME280;40758;54.038;11.684;2022-12-04T04:06:15;102054.00;;;-1.14;100.00
7297;BME280;40758;54.038;11.684;2022-12-04T04:08:53;102044.34;;;-1.13;100.00
7297;BME280;40758;54.038;11.684;2022-12-04T04:11:29;102039.78;;;-1.02;100.00
7297;BME280;40758;54.038;11.684;2022-12-04T04:14:05;102041.69;;;-1.12;100.00
7297;BME280;40758;54.038;11.684;2022-12-04T04:16:58;102045.13;;;-1.07;100.00
7297;BME280;40758;54.038;11.684;2022-12-04T04:19:57;102035.56;;;-1.15;100.00
7297;BME280;40758;54.038;11.684;2022-12-04T04:22:49;102044.28;;;-1.10;100.00
7297;BME280;40758;54.038;11.684;2022-12-04T04:25:41;102045.22;;;-1.14;100.00
7297;BME280;40758;54.038;11.684;2022-12-04T04:28:31;102045.28;;;-1.17;100.00
7297;BME280;40758;54.038;11.684;2022-12-04T04:31:14;102045.31;;;-1.22;100.00
7297;BME280;40758;54.038;11.684;2022-12-04T04:33:53;102042.66;;;-1.20;100.00
7297;BME280;40758;54.038;11.684;2022-12-04T04:36:38;102049.69;;;-1.18;100.00
7297;BME280;40758;54.038;11.684;2022-12-04T04:39:20;102058.50;;;-1.20;100.00
7297;BME280;40758;54.038;11.684;2022-12-04T04:42:00;102047.03;;;-1.18;100.00
7297;BME280;40758;54.038;11.684;2022-12-04T04:44:40;102042.66;;;-1.17;100.00
7297;BME280;40758;54.038;11.684;2022-12-04T04:47:19;102049.63;;;-1.16;100.00
7297;BME280;40758;54.038;11.684;2022-12-04T04:49:51;102046.16;;;-1.18;100.00
7297;BME280;40758;54.038;11.684;2022-12-04T04:52:25;102045.16;;;-1.10;100.00
7297;BME280;40758;54.038;11.684;2022-12-04T04:54:58;102051.34;;;-1.12;100.00
7297;BME280;40758;54.038;11.684;2022-12-04T04:57:30;102058.41;;;-1.14;100.00
7297;BME280;40758;54.038;11.684;2022-12-04T05:00:00;102056.56;;;-1.09;100.00
7297;BME280;40758;54.038;11.684;2022-12-04T05:02:32;102048.66;;;-1.08;100.00
7297;BME280;40758;54.038;11.684;2022-12-04T05:05:06;102050.47;;;-1.11;100.00
7297;BME280;40758;54.038;11.684;2022-12-04T05:07:44;102046.09;;;-1.12;100.00
7297;BME280;40758;54.038;11.684;2022-12-04T05:10:13;102048.72;;;-1.14;100.00
7297;BME280;40758;54.038;11.684;2022-12-04T05:12:42;102054.00;;;-1.14;100.00
7297;BME280;40758;54.038;11.684;2022-12-04T05:15:11;102056.47;;;-1.00;100.00
7297;BME280;40758;54.038;11.684;2022-12-04T05:17:41;102057.34;;;-1.00;100.00
7297;BME280;40758;54.038;11.684;2022-12-04T05:20:11;102063.59;;;-1.07;100.00
7297;BME280;40758;54.038;11.684;2022-12-04T05:22:51;102056.56;;;-1.09;100.00
7297;BME280;40758;54.038;11.684;2022-12-04T05:25:20;102060.00;;;-1.03;100.00
7297;BME280;40758;54.038;11.684;2022-12-04T05:27:49;102062.72;;;-1.10;100.00
7297;BME280;40758;54.038;11.684;2022-12-04T05:30:18;102064.50;;;-1.11;100.00
7297;BME280;40758;54.038;11.684;2022-12-04T05:32:51;102053.09;;;-1.11;100.00
7297;BME280;40758;54.038;11.684;2022-12-04T05:35:20;102058.50;;;-1.20;100.00
7297;BME280;40758;54.038;11.684;2022-12-04T05:37:51;102056.88;;;-1.31;100.00
7297;BME280;40758;54.038;11.684;2022-12-04T05:40:20;102057.84;;;-1.38;100.00
7297;BME280;40758;54.038;11.684;2022-12-04T05:42:50;102064.09;;;-1.45;100.00
7297;BME280;40758;54.038;11.684;2022-12-04T05:45:22;102065.06;;;-1.53;100.00
7297;BME280;40758;54.038;11.684;2022-12-04T05:47:51;102064.19;;;-1.54;100.00
7297;BME280;40758;54.038;11.684;2022-12-04T05:50:20;102059.13;;;-1.69;100.00
7297;BME280;40758;54.038;11.684;2022-12-04T05:52:51;102055.81;;;-1.88;100.00
7297;BME280;40758;54.038;11.684;2022-12-04T05:55:20;102058.66;;;-2.05;100.00
7297;BME280;40758;54.038;11.684;2022-12-04T05:57:49;102061.41;;;-2.17;100.00
7297;BME280;40758;54.038;11.684;2022-12-04T06:00:22;102066.69;;;-2.20;100.00
7297;BME280;40758;54.038;11.684;2022-12-04T06:02:54;102057.09;;;-2.25;100.00
7297;BME280;40758;54.038;11.684;2022-12-04T06:05:26;102064.22;;;-2.38;100.00
7297;BME280;40758;54.038;11.684;2022-12-04T06:07:57;102052.97;;;-2.55;100.00
7297;BME280;40758;54.038;11.684;2022-12-04T06:10:27;102055.66;;;-2.63;100.00
7297;BME280;40758;54.038;11.684;2022-12-04T06:12:57;102059.16;;;-2.64;100.00
7297;BME280;40758;54.038;11.684;2022-12-04T06:15:26;102055.72;;;-2.70;100.00
7297;BME280;40758;54.038;11.684;2022-12-04T06:17:55;102051.38;;;-2.77;100.00
7297;BME280;40758;54.038;11.684;2022-12-04T06:20:24;102055.00;;;-2.91;100.00
7297;BME280;40758;54.038;11.684;2022-12-04T06:22:53;102054.19;;;-3.02;100.00
7297;BME280;40758;54.038;11.684;2022-12-04T06:25:28;102052.50;;;-3.12;100.00
7297;BME280;40758;54.038;11.684;2022-12-04T06:27:57;102056.84;;;-3.08;100.00
7297;BME280;40758;54.038;11.684;2022-12-04T06:30:29;102062.97;;;-3.04;100.00
7297;BME280;40758;54.038;11.684;2022-12-04T06:32:58;102067.31;;;-3.02;100.00
7297;BME280;40758;54.038;11.684;2022-12-04T06:35:27;102065.56;;;-3.00;100.00
7297;BME280;40758;54.038;11.684;2022-12-04T06:37:56;102069.13;;;-3.07;100.00
7297;BME280;40758;54.038;11.684;2022-12-04T06:40:27;102078.75;;;-3.06;100.00
7297;BME280;40758;54.038;11.684;2022-12-04T06:42:56;102071.69;;;-2.98;100.00
7297;BME280;40758;54.038;11.684;2022-12-04T06:45:28;102075.16;;;-2.96;100.00
7297;BME280;40758;54.038;11.684;2022-12-04T06:47:58;102076.88;;;-2.87;100.00
7297;BME280;40758;54.038;11.684;2022-12-04T06:50:29;102077.69;;;-2.77;100.00
7297;BME280;40758;54.038;11.684;2022-12-04T06:52:58;102077.63;;;-2.68;100.00
7297;BME280;40758;54.038;11.684;2022-12-04T06:55:36;102072.31;;;-2.65;100.00
7297;BME280;40758;54.038;11.684;2022-12-04T06:58:06;102078.47;;;-2.63;100.00
7297;BME280;40758;54.038;11.684;2022-12-04T07:00:35;102075.88;;;-2.69;100.00
7297;BME280;40758;54.038;11.684;2022-12-04T07:03:04;102075.91;;;-2.72;100.00
7297;BME280;40758;54.038;11.684;2022-12-04T07:05:33;102075.97;;;-2.78;100.00
7297;BME280;40758;54.038;11.684;2022-12-04T07:08:05;102076.00;;;-2.84;100.00
7297;BME280;40758;54.038;11.684;2022-12-04T07:10:39;102077.78;;;-2.91;100.00
7297;BME280;40758;54.038;11.684;2022-12-04T07:13:10;102094.50;;;-2.97;100.00
7297;BME280;40758;54.038;11.684;2022-12-04T07:15:43;102083.94;;;-2.94;100.00
7297;BME280;40758;54.038;11.684;2022-12-04T07:18:12;102091.75;;;-2.81;100.00
7297;BME280;40758;54.038;11.684;2022-12-04T07:20:42;102085.56;;;-2.73;100.00
7297;BME280;40758;54.038;11.684;2022-12-04T07:23:13;102087.22;;;-2.61;100.00
7297;BME280;40758;54.038;11.684;2022-12-04T07:25:44;102085.38;;;-2.52;100.00
7297;BME280;40758;54.038;11.684;2022-12-04T07:28:13;102093.22;;;-2.41;100.00
7297;BME280;40758;54.038;11.684;2022-12-04T07:30:43;102098.38;;;-2.30;100.00
7297;BME280;40758;54.038;11.684;2022-12-04T07:33:12;102096.56;;;-2.24;100.00
7297;BME280;40758;54.038;11.684;2022-12-04T07:35:42;102088.59;;;-2.16;100.00
7297;BME280;40758;54.038;11.684;2022-12-04T07:38:11;102095.53;;;-2.06;100.00
7297;BME280;40758;54.038;11.684;2022-12-04T07:40:43;102098.03;;;-1.95;100.00
7297;BME280;40758;54.038;11.684;2022-12-04T07:43:13;102097.97;;;-1.86;100.00
7297;BME280;40758;54.038;11.684;2022-12-04T07:45:44;102093.50;;;-1.80;100.00
7297;BME280;40758;54.038;11.684;2022-12-04T07:48:13;102099.56;;;-1.73;100.00
7297;BME280;40758;54.038;11.684;2022-12-04T07:50:43;102099.50;;;-1.67;100.00
7297;BME280;40758;54.038;11.684;2022-12-04T07:53:12;102101.16;;;-1.60;100.00
7297;BME280;40758;54.038;11.684;2022-12-04T07:55:43;102102.81;;;-1.48;100.00
7297;BME280;40758;54.038;11.684;2022-12-04T07:58:12;102104.34;;;-1.32;100.00
7297;BME280;40758;54.038;11.684;2022-12-04T08:00:46;102105.06;;;-1.18;100.00
7297;BME280;40758;54.038;11.684;2022-12-04T08:03:16;102097.91;;;-1.10;100.00
7297;BME280;40758;54.038;11.684;2022-12-04T08:05:45;102102.13;;;-0.98;100.00
7297;BME280;40758;54.038;11.684;2022-12-04T08:08:14;102101.13;;;-0.88;100.00
7297;BME280;40758;54.038;11.684;2022-12-04T08:10:46;102100.09;;;-0.78;100.00
7297;BME280;40758;54.038;11.684;2022-12-04T08:13:18;102104.31;;;-0.68;100.00
7297;BME280;40758;54.038;11.684;2022-12-04T08:15:48;102100.69;;;-0.59;100.00
7297;BME280;40758;54.038;11.684;2022-12-04T08:18:27;102104.09;;;-0.51;100.00
7297;BME280;40758;54.038;11.684;2022-12-04T08:21:04;102107.44;;;-0.42;100.00
7297;BME280;40758;54.038;11.684;2022-12-04T08:23:34;102105.56;;;-0.35;100.00
7297;BME280;40758;54.038;11.684;2022-12-04T08:26:05;102105.44;;;-0.27;100.00
7297;BME280;40758;54.038;11.684;2022-12-04T08:28:40;102107.91;;;-0.18;100.00
7297;BME280;40758;54.038;11.684;2022-12-04T08:31:15;102109.56;;;-0.11;100.00
7297;BME280;40758;54.038;11.684;2022-12-04T08:33:49;102111.16;;;-0.01;100.00
7297;BME280;40758;54.038;11.684;2022-12-04T08:36:21;102112.84;;;0.03;100.00
7297;BME280;40758;54.038;11.684;2022-12-04T08:38:50;102109.13;;;0.13;100.00
7297;BME280;40758;54.038;11.684;2022-12-04T08:41:23;102114.16;;;0.28;100.00
7297;BME280;40758;54.038;11.684;2022-12-04T08:43:54;102105.31;;;0.29;100.00
7297;BME280;40758;54.038;11.684;2022-12-04T08:46:27;102105.19;;;0.37;100.00
7297;BME280;40758;54.038;11.684;2022-12-04T08:48:58;102110.28;;;0.45;100.00
7297;BME280;40758;54.038;11.684;2022-12-04T08:51:32;102117.31;;;0.46;100.00
7297;BME280;40758;54.038;11.684;2022-12-04T08:54:11;102116.13;;;0.62;100.00
7297;BME280;40758;54.038;11.684;2022-12-04T08:56:49;102116.97;;;0.64;100.00
7297;BME280;40758;54.038;11.684;2022-12-04T08:59:20;102122.97;;;0.73;100.00
7297;BME280;40758;54.038;11.684;2022-12-04T09:01:56;102126.53;;;0.69;100.00
7297;BME280;40758;54.038;11.684;2022-12-04T09:04:47;102127.13;;;0.84;100.00
7297;BME280;40758;54.038;11.684;2022-12-04T09:07:18;102122.47;;;0.96;100.00
7297;BME280;40758;54.038;11.684;2022-12-04T09:09:52;102115.19;;;1.06;100.00
7297;BME280;40758;54.038;11.684;2022-12-04T09:12:25;102122.09;;;1.13;100.00
7297;BME280;40758;54.038;11.684;2022-12-04T09:14:59;102114.13;;;1.14;100.00
7297;BME280;40758;54.038;11.684;2022-12-04T09:17:30;102111.16;;;1.28;100.00
7297;BME280;40758;54.038;11.684;2022-12-04T09:20:08;102108.25;;;1.39;100.00
7297;BME280;40758;54.038;11.684;2022-12-04T09:23:06;102111.75;;;1.41;100.00
7297;BME280;40758;54.038;11.684;2022-12-04T09:25:39;102100.16;;;1.45;100.00
7297;BME280;40758;54.038;11.684;2022-12-04T09:28:33;102104.63;;;1.43;100.00
7297;BME280;40758;54.038;11.684;2022-12-04T09:31:04;102106.34;;;1.45;100.00
7297;BME280;40758;54.038;11.684;2022-12-04T09:33:43;102104.47;;;1.49;100.00
7297;BME280;40758;54.038;11.684;2022-12-04T09:36:14;102096.47;;;1.52;100.00
7297;BME280;40758;54.038;11.684;2022-12-04T09:39:03;102099.84;;;1.58;100.00
7297;BME280;40758;54.038;11.684;2022-12-04T09:42:18;102086.56;;;1.60;100.00
7297;BME280;40758;54.038;11.684;2022-12-04T09:45:03;102086.88;;;1.48;100.00
7297;BME280;40758;54.038;11.684;2022-12-04T09:47:41;102081.22;;;1.61;100.00
7297;BME280;40758;54.038;11.684;2022-12-04T09:50:22;102074.00;;;1.68;100.00
7297;BME280;40758;54.038;11.684;2022-12-04T09:53:16;102080.81;;;1.78;100.00
7297;BME280;40758;54.038;11.684;2022-12-04T09:55:55;102074.66;;;1.76;100.00
7297;BME280;40758;54.038;11.684;2022-12-04T09:58:44;102063.75;;;1.88;100.00
7297;BME280;40758;54.038;11.684;2022-12-04T10:01:27;102068.97;;;1.91;100.00
7297;BME280;40758;54.038;11.684;2022-12-04T10:04:00;102069.75;;;1.96;100.00
7297;BME280;40758;54.038;11.684;2022-12-04T10:06:41;102061.88;;;1.92;100.00
7297;BME280;40758;54.038;11.684;2022-12-04T10:09:23;102051.28;;;1.92;100.00
7297;BME280;40758;54.038;11.684;2022-12-04T10:12:07;102050.50;;;1.88;100.00
7297;BME280;40758;54.038;11.684;2022-12-04T10:14:59;102052.25;;;1.89;100.00
7297;BME280;40758;54.038;11.684;2022-12-04T10:18:25;102057.38;;;1.95;100.00
7297;BME280;40758;54.038;11.684;2022-12-04T10:21:28;102049.13;;;2.06;100.00
7297;BME280;40758;54.038;11.684;2022-12-04T10:24:19;102039.72;;;1.96;100.00
7297;BME280;40758;54.038;11.684;2022-12-04T10:27:17;102044.66;;;2.10;100.00
7297;BME280;40758;54.038;11.684;2022-12-04T10:29:55;102039.06;;;2.19;100.00
7297;BME280;40758;54.038;11.684;2022-12-04T10:32:32;102032.50;;;2.32;100.00
7297;BME280;40758;54.038;11.684;2022-12-04T10:35:18;102029.88;;;2.32;100.00
7297;BME280;40758;54.038;11.684;2022-12-04T10:37:56;102030.69;;;2.34;100.00
7297;BME280;40758;54.038;11.684;2022-12-04T10:40:36;102026.38;;;2.30;100.00
7297;BME280;40758;54.038;11.684;2022-12-04T10:43:21;102020.84;;;2.37;100.00
7297;BME280;40758;54.038;11.684;2022-12-04T10:45:57;102017.25;;;2.40;100.00
7297;BME280;40758;54.038;11.684;2022-12-04T10:48:39;102016.50;;;2.35;100.00
7297;BME280;40758;54.038;11.684;2022-12-04T10:51:21;102012.66;;;2.47;100.00
7297;BME280;40758;54.038;11.684;2022-12-04T10:53:58;102001.91;;;2.51;100.00
7297;BME280;40758;54.038;11.684;2022-12-04T10:56:31;102012.53;;;2.50;100.00
7297;BME280;40758;54.038;11.684;2022-12-04T10:59:05;102012.09;;;2.65;100.00
7297;BME280;40758;54.038;11.684;2022-12-04T11:01:36;102005.13;;;2.61;100.00
7297;BME280;40758;54.038;11.684;2022-12-04T11:04:20;101999.97;;;2.56;100.00
7297;BME280;40758;54.038;11.684;2022-12-04T11:07:02;102000.53;;;2.66;100.00
7297;BME280;40758;54.038;11.684;2022-12-04T11:09:36;101996.22;;;2.63;100.00
7297;BME280;40758;54.038;11.684;2022-12-04T11:12:17;101999.53;;;2.71;100.00
7297;BME280;40758;54.038;11.684;2022-12-04T11:15:11;101994.06;;;2.76;100.00
7297;BME280;40758;54.038;11.684;2022-12-04T11:17:42;101996.41;;;2.85;100.00
7297;BME280;40758;54.038;11.684;2022-12-04T11:20:19;101988.13;;;2.96;100.00
7297;BME280;40758;54.038;11.684;2022-12-04T11:22:57;101991.91;;;2.89;100.00
7297;BME280;40758;54.038;11.684;2022-12-04T11:25:46;101978.44;;;2.95;100.00
7297;BME280;40758;54.038;11.684;2022-12-04T11:28:20;101974.66;;;3.02;100.00
7297;BME280;40758;54.038;11.684;2022-12-04T11:31:50;101969.25;;;3.05;100.00
7297;BME280;40758;54.038;11.684;2022-12-04T11:34:28;101966.13;;;3.18;100.00
7297;BME280;40758;54.038;11.684;2022-12-04T11:36:59;101970.88;;;3.09;100.00
7297;BME280;40758;54.038;11.684;2022-12-04T11:39:38;101964.41;;;3.17;100.00
7297;BME280;40758;54.038;11.684;2022-12-04T11:42:22;101967.94;;;3.18;100.00
7297;BME280;40758;54.038;11.684;2022-12-04T11:44:54;101969.22;;;3.33;100.00
7297;BME280;40758;54.038;11.684;2022-12-04T11:47:28;101962.63;;;3.44;100.00
7297;BME280;40758;54.038;11.684;2022-12-04T11:50:12;101960.97;;;3.40;100.00
7297;BME280;40758;54.038;11.684;2022-12-04T11:53:12;101962.81;;;3.38;100.00
7297;BME280;40758;54.038;11.684;2022-12-04T11:56:22;101957.50;;;3.38;100.00
7297;BME280;40758;54.038;11.684;2022-12-04T11:59:32;101951.28;;;3.39;100.00
7297;BME280;40758;54.038;11.684;2022-12-04T12:02:30;101962.72;;;3.41;100.00
7297;BME280;40758;54.038;11.684;2022-12-04T12:05:49;101955.41;;;3.48;100.00
7297;BME280;40758;54.038;11.684;2022-12-04T12:08:45;101946.88;;;3.38;100.00
7297;BME280;40758;54.038;11.684;2022-12-04T12:11:34;101944.94;;;3.43;100.00
7297;BME280;40758;54.038;11.684;2022-12-04T12:14:17;101945.91;;;3.41;100.00
7297;BME280;40758;54.038;11.684;2022-12-04T12:16:59;101939.66;;;3.42;100.00
7297;BME280;40758;54.038;11.684;2022-12-04T12:20:12;101942.31;;;3.42;100.00
7297;BME280;40758;54.038;11.684;2022-12-04T12:23:11;101946.72;;;3.43;100.00
7297;BME280;40758;54.038;11.684;2022-12-04T12:25:55;101940.44;;;3.45;100.00
7297;BME280;40758;54.038;11.684;2022-12-04T12:29:01;101936.84;;;3.46;100.00
7297;BME280;40758;54.038;11.684;2022-12-04T12:34:42;101933.06;;;3.53;100.00
7297;BME280;40758;54.038;11.684;2022-12-04T12:37:22;101940.13;;;3.54;100.00
7297;BME280;40758;54.038;11.684;2022-12-04T12:40:11;101934.09;;;3.49;100.00
7297;BME280;40758;54.038;11.684;2022-12-04T12:42:51;101936.72;;;3.51;100.00
7297;BME280;40758;54.038;11.684;2022-12-04T12:45:34;101929.53;;;3.53;100.00
7297;BME280;40758;54.038;11.684;2022-12-04T12:48:24;101930.44;;;3.52;100.00
7297;BME280;40758;54.038;11.684;2022-12-04T12:51:03;101924.88;;;3.59;100.00
7297;BME280;40758;54.038;11.684;2022-12-04T12:54:08;101925.09;;;3.53;100.00
7297;BME280;40758;54.038;11.684;2022-12-04T12:56:46;101919.69;;;3.56;100.00
7297;BME280;40758;54.038;11.684;2022-12-04T12:59:22;101918.53;;;3.63;100.00
7297;BME280;40758;54.038;11.684;2022-12-04T13:02:02;101916.69;;;3.65;100.00
7297;BME280;40758;54.038;11.684;2022-12-04T13:04:41;101915.66;;;3.70;100.00
7297;BME280;40758;54.038;11.684;2022-12-04T13:07:30;101913.56;;;3.78;100.00
7297;BME280;40758;54.038;11.684;2022-12-04T13:10:12;101904.16;;;3.69;100.00
7297;BME280;40758;54.038;11.684;2022-12-04T13:12:50;101910.13;;;3.76;100.00
7297;BME280;40758;54.038;11.684;2022-12-04T13:15:45;101910.13;;;3.76;100.00
7297;BME280;40758;54.038;11.684;2022-12-04T13:18:39;101902.59;;;3.63;100.00
7297;BME280;40758;54.038;11.684;2022-12-04T13:21:50;101908.69;;;3.65;100.00
7297;BME280;40758;54.038;11.684;2022-12-04T13:25:11;101904.31;;;3.64;100.00
7297;BME280;40758;54.038;11.684;2022-12-04T13:28:04;101908.59;;;3.69;100.00
7297;BME280;40758;54.038;11.684;2022-12-04T13:30:45;101894.50;;;3.66;100.00
7297;BME280;40758;54.038;11.684;2022-12-04T13:33:58;101894.72;;;3.60;100.00
7297;BME280;40758;54.038;11.684;2022-12-04T13:40:32;101890.94;;;3.67;100.00
7297;BME280;40758;54.038;11.684;2022-12-04T13:43:16;101888.03;;;3.74;100.00